createdAt,value
2017-11-10T00:00:26.820Z,19.10
2017-11-10T00:02:56.008Z,19.73
2017-11-10T00:05:25.707Z,17.87
2017-11-10T00:07:54.896Z,17.30
2017-11-10T00:10:23.332Z,18.87
2017-11-10T00:12:51.747Z,18.30
2017-11-10T00:15:20.159Z,17.93
2017-11-10T00:17:49.355Z,19.20
2017-11-10T00:20:18.535Z,18.70
2017-11-10T00:22:46.953Z,18.70
2017-11-10T00:25:15.371Z,18.30
2017-11-10T00:27:43.787Z,17.60
2017-11-10T00:30:12.957Z,17.73
2017-11-10T00:32:41.380Z,16.87
2017-11-10T00:35:09.796Z,17.07
2017-11-10T00:37:38.226Z,16.40
2017-11-10T00:40:07.415Z,18.27
2017-11-10T00:42:36.599Z,16.50
2017-11-10T00:45:05.774Z,15.70
2017-11-10T00:47:34.198Z,18.23
2017-11-10T00:50:02.625Z,15.90
2017-11-10T00:52:31.038Z,17.33
2017-11-10T00:55:00.243Z,17.30
2017-11-10T00:57:29.510Z,17.73
2017-11-10T00:59:57.923Z,16.40
2017-11-10T01:02:26.419Z,17.50
2017-11-10T01:04:54.839Z,16.67
2017-11-10T01:07:23.240Z,16.50
2017-11-10T01:09:51.676Z,14.87
2017-11-10T01:12:20.076Z,17.37
2017-11-10T01:14:52.238Z,16.10
2017-11-10T01:17:20.648Z,14.90
2017-11-10T01:19:49.828Z,16.00
2017-11-10T01:22:18.264Z,16.23
2017-11-10T01:24:46.691Z,15.97
2017-11-10T01:27:15.109Z,14.90
2017-11-10T01:29:43.539Z,14.73
2017-11-10T01:32:11.961Z,13.90
2017-11-10T01:34:40.370Z,15.67
2017-11-10T01:37:08.803Z,15.10
2017-11-10T01:39:37.975Z,14.90
2017-11-10T01:42:06.403Z,15.97
2017-11-10T01:44:34.843Z,15.73
2017-11-10T01:47:02.915Z,14.40
2017-11-10T01:49:30.986Z,14.87
2017-11-10T01:51:59.833Z,14.50
2017-11-10T01:54:27.381Z,15.10
2017-11-10T01:56:55.602Z,14.43
2017-11-10T01:59:24.027Z,15.40
2017-11-10T02:01:52.428Z,14.70
2017-11-10T02:04:20.840Z,15.10
2017-11-10T02:06:49.292Z,15.07
2017-11-10T02:09:17.707Z,16.33
2017-11-10T02:11:46.539Z,16.27
2017-11-10T02:14:14.970Z,14.47
2017-11-10T02:16:44.140Z,15.70
2017-11-10T02:19:11.872Z,17.67
2017-11-10T02:21:39.615Z,15.73
2017-11-10T02:24:08.023Z,15.90
2017-11-10T02:26:36.489Z,16.37
2017-11-10T02:29:04.665Z,16.30
2017-11-10T02:31:32.727Z,16.40
2017-11-10T02:34:00.447Z,16.60
2017-11-10T02:36:28.875Z,17.50
2017-11-10T02:38:56.934Z,15.63
2017-11-10T02:41:25.348Z,17.00
2017-11-10T02:43:53.784Z,17.23
2017-11-10T02:46:22.429Z,16.90
2017-11-10T02:48:50.836Z,15.53
2017-11-10T02:51:20.035Z,15.27
2017-11-10T02:53:49.212Z,16.80
2017-11-10T02:56:17.873Z,15.00
2017-11-10T02:58:46.309Z,15.90
2017-11-10T03:01:14.371Z,17.33
2017-11-10T03:03:43.555Z,15.97
2017-11-10T03:06:12.747Z,16.50
2017-11-10T03:08:41.931Z,15.90
2017-11-10T03:11:10.358Z,16.23
2017-11-10T03:13:38.101Z,15.87
2017-11-10T03:16:06.759Z,15.37
2017-11-10T03:18:35.175Z,15.47
2017-11-10T03:21:03.595Z,16.10
2017-11-10T03:23:32.019Z,13.93
2017-11-10T03:26:00.428Z,14.63
2017-11-10T03:28:28.974Z,15.03
2017-11-10T03:30:58.160Z,15.20
2017-11-10T03:33:27.350Z,15.37
2017-11-10T03:35:55.779Z,15.33
2017-11-10T03:38:24.191Z,13.93
2017-11-10T03:40:52.607Z,16.60
2017-11-10T03:43:21.050Z,14.77
2017-11-10T03:45:48.782Z,15.67
2017-11-10T03:48:17.186Z,14.50
2017-11-10T03:50:45.608Z,15.90
2017-11-10T03:53:14.036Z,15.13
2017-11-10T03:55:42.452Z,15.50
2017-11-10T03:58:10.889Z,12.63
2017-11-10T04:00:39.303Z,14.53
2017-11-10T04:03:07.387Z,14.30
2017-11-10T04:05:36.599Z,13.50
2017-11-10T04:08:04.671Z,15.10
2017-11-10T04:10:32.747Z,13.50
2017-11-10T04:13:01.181Z,13.27
2017-11-10T04:15:30.359Z,12.47
2017-11-10T04:17:58.774Z,17.97
2017-11-10T04:20:26.881Z,13.63
2017-11-10T04:22:55.294Z,13.53
2017-11-10T04:25:23.363Z,13.33
2017-11-10T04:27:51.805Z,14.50
2017-11-10T04:30:20.226Z,12.80
2017-11-10T04:32:48.340Z,13.93
2017-11-10T04:35:16.769Z,13.10
2017-11-10T04:37:45.188Z,12.60
2017-11-10T04:40:14.373Z,11.90
2017-11-10T04:42:42.815Z,13.50
2017-11-10T04:45:10.882Z,13.57
2017-11-10T04:47:39.345Z,11.60
2017-11-10T04:50:07.792Z,13.13
2017-11-10T04:52:36.995Z,12.47
2017-11-10T04:55:06.188Z,10.67
2017-11-10T04:57:35.027Z,11.50
2017-11-10T05:00:03.111Z,12.43
2017-11-10T05:02:31.533Z,11.87
2017-11-10T05:04:59.983Z,12.30
2017-11-10T05:07:28.387Z,12.17
2017-11-10T05:09:57.570Z,11.43
2017-11-10T05:12:26.771Z,10.60
2017-11-10T05:14:55.951Z,11.10
2017-11-10T05:17:25.016Z,10.97
2017-11-10T05:19:53.441Z,11.00
2017-11-10T05:22:22.630Z,11.97
2017-11-10T05:24:50.848Z,10.17
2017-11-10T05:27:19.286Z,11.30
2017-11-10T05:29:48.464Z,10.83
2017-11-10T05:32:16.868Z,11.30
2017-11-10T05:34:46.822Z,11.43
2017-11-10T05:37:14.365Z,9.90
2017-11-10T05:39:42.586Z,11.57
2017-11-10T05:42:10.818Z,10.70
2017-11-10T05:44:39.036Z,9.93
2017-11-10T05:47:07.268Z,10.27
2017-11-10T05:49:35.695Z,10.50
2017-11-10T05:52:03.588Z,9.90
2017-11-10T05:54:32.593Z,10.20
2017-11-10T05:57:00.833Z,10.90
2017-11-10T05:59:29.067Z,9.17
2017-11-10T06:01:56.794Z,10.20
2017-11-10T06:04:24.544Z,9.47
2017-11-10T06:06:53.034Z,10.23
2017-11-10T06:09:21.456Z,10.07
2017-11-10T06:11:49.890Z,9.67
2017-11-10T06:14:19.074Z,10.30
2017-11-10T06:16:48.257Z,10.10
2017-11-10T06:19:16.678Z,11.80
2017-11-10T06:21:44.757Z,10.53
2017-11-10T06:24:13.195Z,10.17
2017-11-10T06:26:45.790Z,10.63
2017-11-10T06:29:14.987Z,11.40
2017-11-10T06:31:43.406Z,11.77
2017-11-10T06:34:11.846Z,12.47
2017-11-10T06:36:41.030Z,11.53
2017-11-10T06:39:09.532Z,12.43
2017-11-10T06:41:37.961Z,12.83
2017-11-10T06:44:06.372Z,12.30
2017-11-10T06:46:34.792Z,11.17
2017-11-10T06:49:03.237Z,12.30
2017-11-10T06:51:31.893Z,13.50
2017-11-10T06:54:00.316Z,11.77
2017-11-10T06:56:29.060Z,12.53
2017-11-10T06:58:58.075Z,12.00
2017-11-10T07:01:26.911Z,12.73
2017-11-10T07:03:55.351Z,13.37
2017-11-10T07:06:23.857Z,12.20
2017-11-10T07:08:52.300Z,11.47
2017-11-10T07:11:21.497Z,12.30
2017-11-10T07:13:50.689Z,13.23
2017-11-10T07:16:19.347Z,12.73
2017-11-10T07:18:47.790Z,12.77
2017-11-10T07:21:16.207Z,12.13
2017-11-10T07:23:45.385Z,12.77
2017-11-10T07:26:13.829Z,13.67
2017-11-10T07:28:42.261Z,11.97
2017-11-10T07:31:10.671Z,13.00
2017-11-10T07:33:39.686Z,11.67
2017-11-10T07:36:08.097Z,12.93
2017-11-10T07:38:36.514Z,11.53
2017-11-10T07:41:05.724Z,13.53
2017-11-10T07:43:34.912Z,12.93
2017-11-10T07:46:04.106Z,12.90
2017-11-10T07:48:33.310Z,12.87
2017-11-10T07:51:02.489Z,12.43
2017-11-10T07:53:30.898Z,12.57
2017-11-10T07:55:59.338Z,14.13
2017-11-10T07:58:27.747Z,14.33
2017-11-10T08:00:56.929Z,11.67
2017-11-10T08:03:25.375Z,12.27
2017-11-10T08:05:53.634Z,13.30
2017-11-10T08:08:22.034Z,13.63
2017-11-10T08:10:50.468Z,12.90
2017-11-10T08:13:18.875Z,13.43
2017-11-10T08:15:47.099Z,15.83
2017-11-10T08:18:16.310Z,13.33
2017-11-10T08:20:44.744Z,15.60
2017-11-10T08:23:12.960Z,14.03
2017-11-10T08:25:42.159Z,14.80
2017-11-10T08:28:10.243Z,14.63
2017-11-10T08:30:38.679Z,15.33
2017-11-10T08:33:07.211Z,14.80
2017-11-10T08:35:35.633Z,13.67
2017-11-10T08:38:04.043Z,15.00
2017-11-10T08:40:32.488Z,13.63
2017-11-10T08:43:00.911Z,16.07
2017-11-10T08:45:29.329Z,14.90
2017-11-10T08:47:57.422Z,14.80
2017-11-10T08:50:25.833Z,14.47
2017-11-10T08:52:54.243Z,13.77
2017-11-10T08:55:22.679Z,14.70
2017-11-10T08:57:51.865Z,12.50
2017-11-10T09:00:20.272Z,12.93
2017-11-10T09:02:48.710Z,14.00
2017-11-10T09:05:17.115Z,14.63
2017-11-10T09:07:46.298Z,13.30
2017-11-10T09:10:14.545Z,16.67
2017-11-10T09:12:42.968Z,15.23
2017-11-10T09:15:12.190Z,15.00
2017-11-10T09:17:40.444Z,14.73
2017-11-10T09:20:08.866Z,14.50
2017-11-10T09:22:37.091Z,15.70
2017-11-10T09:25:06.111Z,14.33
2017-11-10T09:27:33.634Z,14.10
2017-11-10T09:30:07.095Z,13.80
2017-11-10T09:32:50.201Z,14.50
2017-11-10T09:35:22.572Z,15.70
2017-11-10T09:37:52.680Z,15.77
2017-11-10T09:40:26.491Z,15.50
2017-11-10T09:42:59.352Z,15.10
2017-11-10T09:45:28.135Z,16.00
2017-11-10T09:51:06.211Z,14.37
2017-11-10T09:53:40.069Z,15.40
2017-11-10T09:56:22.747Z,15.47
2017-11-10T09:58:56.615Z,15.90
2017-11-10T10:04:48.733Z,16.30
2017-11-10T10:07:37.728Z,15.40
2017-11-10T10:10:20.837Z,15.97
2017-11-10T10:12:51.856Z,16.23
2017-11-10T10:15:35.717Z,16.80
2017-11-10T10:18:04.539Z,16.00
2017-11-10T10:20:38.601Z,15.67
2017-11-10T10:23:06.843Z,15.73
2017-11-10T10:25:35.978Z,15.67
2017-11-10T10:28:04.215Z,15.27
2017-11-10T10:30:32.651Z,15.60
2017-11-10T10:33:01.078Z,15.30
2017-11-10T10:35:29.576Z,14.50
2017-11-10T10:37:58.002Z,15.73
2017-11-10T10:40:26.068Z,14.80
2017-11-10T10:42:54.502Z,15.17
2017-11-10T10:45:23.695Z,15.40
2017-11-10T10:47:52.861Z,15.27
2017-11-10T10:50:21.270Z,16.30
2017-11-10T10:52:50.520Z,15.63
2017-11-10T10:55:19.155Z,15.83
2017-11-10T10:57:48.003Z,14.67
2017-11-10T11:00:15.925Z,15.97
2017-11-10T11:02:45.572Z,15.50
2017-11-10T11:05:13.991Z,15.80
2017-11-10T11:07:43.183Z,15.07
2017-11-10T11:10:12.350Z,16.13
2017-11-10T11:12:40.760Z,15.13
2017-11-10T11:15:09.951Z,15.20
2017-11-10T11:17:39.122Z,14.63
2017-11-10T11:20:07.543Z,13.90
2017-11-10T11:22:36.394Z,15.00
2017-11-10T11:25:04.796Z,16.53
2017-11-10T11:27:33.971Z,14.37
2017-11-10T11:30:02.395Z,14.77
2017-11-10T11:32:30.619Z,15.80
2017-11-10T11:34:59.035Z,14.87
2017-11-10T11:37:28.231Z,13.33
2017-11-10T11:39:57.415Z,13.03
2017-11-10T11:42:26.593Z,12.43
2017-11-10T11:44:55.017Z,13.37
2017-11-10T11:47:23.424Z,13.50
2017-11-10T11:49:51.835Z,12.00
2017-11-10T11:52:20.275Z,13.40
2017-11-10T11:54:48.358Z,13.30
2017-11-10T11:57:16.427Z,14.23
2017-11-10T11:59:44.164Z,13.57
2017-11-10T12:02:12.230Z,13.23
2017-11-10T12:04:40.648Z,12.67
2017-11-10T12:07:08.800Z,13.63
2017-11-10T12:09:36.868Z,13.63
2017-11-10T12:12:05.276Z,12.93
2017-11-10T12:14:33.720Z,13.30
2017-11-10T12:17:02.127Z,14.70
2017-11-10T12:19:30.537Z,13.60
2017-11-10T12:21:59.043Z,15.10
2017-11-10T12:24:26.762Z,15.40
2017-11-10T12:26:55.167Z,14.50
2017-11-10T12:29:23.599Z,14.40
2017-11-10T12:31:52.010Z,12.87
2017-11-10T12:34:20.231Z,15.53
2017-11-10T12:36:48.313Z,14.10
2017-11-10T12:39:16.718Z,14.43
2017-11-10T12:41:44.792Z,14.27
2017-11-10T12:44:12.888Z,14.27
2017-11-10T12:46:42.067Z,14.27
2017-11-10T12:49:10.123Z,14.93
2017-11-10T12:51:38.550Z,14.70
2017-11-10T12:54:06.972Z,15.40
2017-11-10T12:56:35.038Z,13.60
2017-11-10T12:59:03.136Z,15.80
2017-11-10T13:01:31.703Z,14.30
2017-11-10T13:03:59.772Z,14.50
2017-11-10T13:06:28.205Z,14.67
2017-11-10T13:08:56.269Z,14.67
2017-11-10T13:11:24.157Z,15.10
2017-11-10T13:13:52.397Z,15.23
2017-11-10T13:16:21.137Z,14.80
2017-11-10T13:18:49.405Z,15.10
2017-11-10T13:21:17.481Z,15.03
2017-11-10T13:23:45.790Z,16.80
2017-11-10T13:26:14.985Z,16.27
2017-11-10T13:28:43.420Z,16.00
2017-11-10T13:31:11.832Z,15.93
2017-11-10T13:33:40.240Z,16.60
2017-11-10T13:36:09.439Z,17.97
2017-11-10T13:38:38.617Z,19.07
2017-11-10T13:41:07.820Z,17.00
2017-11-10T13:43:37.247Z,16.60
2017-11-10T13:46:05.659Z,16.90
2017-11-10T13:48:34.073Z,16.17
2017-11-10T13:51:02.502Z,18.60
2017-11-10T13:53:30.912Z,17.37
2017-11-10T13:55:59.346Z,15.23
2017-11-10T13:58:28.031Z,16.30
2017-11-10T14:00:56.526Z,16.03
2017-11-10T14:03:24.940Z,15.73
2017-11-10T14:05:53.382Z,16.97
2017-11-10T14:08:21.802Z,16.93
2017-11-10T14:10:50.215Z,17.17
2017-11-10T14:13:18.643Z,16.67
2017-11-10T14:15:47.073Z,17.23
2017-11-10T14:18:15.495Z,18.50
2017-11-10T14:20:43.751Z,17.50
2017-11-10T14:23:11.631Z,18.10
2017-11-10T14:25:40.043Z,17.97
2017-11-10T14:28:08.490Z,16.70
2017-11-10T14:30:36.897Z,17.47
2017-11-10T14:33:05.326Z,15.63
2017-11-10T14:35:33.757Z,16.70
2017-11-10T14:38:02.164Z,17.43
2017-11-10T14:40:30.582Z,16.23
2017-11-10T14:42:59.082Z,18.30
2017-11-10T14:45:27.492Z,16.30
2017-11-10T14:47:56.690Z,16.97
2017-11-10T14:50:25.916Z,16.30
2017-11-10T14:52:54.403Z,16.63
2017-11-10T14:55:22.807Z,18.57
2017-11-10T14:57:51.258Z,18.17
2017-11-10T15:00:20.373Z,18.63
2017-11-10T15:02:50.317Z,17.00
2017-11-10T15:05:19.632Z,16.13
2017-11-10T15:07:48.465Z,16.27
2017-11-10T15:10:16.920Z,16.40
2017-11-10T15:12:45.358Z,14.90
2017-11-10T15:15:13.480Z,17.20
2017-11-10T15:17:41.899Z,17.13
2017-11-10T15:20:10.391Z,17.50
2017-11-10T15:22:38.458Z,17.87
2017-11-10T15:25:06.862Z,17.00
2017-11-10T15:27:36.054Z,15.70
2017-11-10T15:30:05.263Z,16.30
2017-11-10T15:32:33.561Z,15.27
2017-11-10T15:35:02.013Z,18.47
2017-11-10T15:37:31.198Z,20.10
2017-11-10T15:40:00.375Z,17.90
2017-11-10T15:42:28.289Z,19.20
2017-11-10T15:44:56.350Z,17.63
2017-11-10T15:47:24.563Z,15.67
2017-11-10T15:49:52.817Z,17.47
2017-11-10T15:52:21.236Z,15.60
2017-11-10T15:54:49.579Z,16.87
2017-11-10T15:57:18.259Z,18.20
2017-11-10T15:59:46.503Z,15.77
2017-11-10T16:02:14.391Z,17.10
2017-11-10T16:07:22.184Z,15.00
2017-11-10T16:12:30.196Z,14.57
2017-11-10T16:14:59.428Z,15.43
2017-11-10T16:17:27.918Z,14.73
2017-11-10T16:19:55.991Z,14.47
2017-11-10T16:22:24.473Z,15.90
2017-11-10T16:24:52.901Z,13.20
2017-11-10T16:27:22.091Z,15.10
2017-11-10T16:29:50.520Z,14.83
2017-11-10T16:32:19.111Z,15.17
2017-11-10T16:34:47.576Z,14.83
2017-11-10T16:37:15.995Z,15.90
2017-11-10T16:39:44.424Z,13.27
2017-11-10T16:42:12.839Z,14.30
2017-11-10T16:44:41.281Z,13.90
2017-11-10T16:47:09.692Z,13.30
2017-11-10T16:49:38.132Z,12.43
2017-11-10T16:52:06.743Z,14.67
2017-11-10T16:54:35.477Z,13.43
2017-11-10T16:57:04.193Z,15.17
2017-11-10T16:59:32.444Z,13.43
2017-11-10T17:02:00.851Z,12.53
2017-11-10T17:04:29.271Z,13.70
2017-11-10T17:06:57.691Z,13.60
2017-11-10T17:09:26.881Z,11.53
2017-11-10T17:11:56.105Z,10.87
2017-11-10T17:14:24.560Z,11.43
2017-11-10T17:16:53.071Z,10.60
2017-11-10T17:19:21.497Z,10.37
2017-11-10T17:21:50.017Z,10.47
2017-11-10T17:24:18.447Z,10.53
2017-11-10T17:26:46.875Z,11.07
2017-11-10T17:29:15.311Z,9.07
2017-11-10T17:31:43.736Z,9.20
2017-11-10T17:34:12.444Z,7.87
2017-11-10T17:36:40.711Z,9.13
2017-11-10T17:39:09.124Z,8.17
2017-11-10T17:41:37.533Z,8.90
2017-11-10T17:44:06.768Z,8.50
2017-11-10T17:46:35.200Z,7.90
2017-11-10T17:49:04.482Z,8.33
2017-11-10T17:51:32.570Z,9.90
2017-11-10T17:54:01.746Z,7.70
2017-11-10T17:56:30.181Z,8.10
2017-11-10T17:58:58.604Z,7.90
2017-11-10T18:01:27.020Z,8.27
2017-11-10T18:03:55.847Z,8.10
2017-11-10T18:06:23.920Z,8.43
2017-11-10T18:08:52.331Z,6.97
2017-11-10T18:11:21.557Z,8.87
2017-11-10T18:13:50.006Z,8.00
2017-11-10T18:16:18.415Z,7.10
2017-11-10T18:18:46.843Z,7.70
2017-11-10T18:21:15.306Z,7.17
2017-11-10T18:23:43.801Z,8.00
2017-11-10T18:26:12.236Z,7.37
2017-11-10T18:28:40.705Z,7.00
2017-11-10T18:31:09.879Z,7.50
2017-11-10T18:33:38.158Z,7.10
2017-11-10T18:36:07.366Z,8.13
2017-11-10T18:38:36.573Z,7.50
2017-11-10T18:41:05.583Z,6.10
2017-11-10T18:43:33.862Z,6.50
2017-11-10T18:46:02.271Z,6.40
2017-11-10T18:48:34.409Z,7.77
2017-11-10T18:51:02.826Z,6.43
2017-11-10T18:53:36.806Z,7.57
2017-11-10T18:56:05.240Z,6.60
2017-11-10T18:58:34.466Z,8.53
2017-11-10T19:01:02.987Z,7.40
2017-11-10T19:03:31.649Z,7.57
2017-11-10T19:06:00.632Z,7.50
2017-11-10T19:08:28.684Z,6.80
2017-11-10T19:10:56.829Z,6.80
2017-11-10T19:13:25.321Z,6.23
2017-11-10T19:15:54.853Z,6.40
2017-11-10T19:18:23.597Z,5.43
2017-11-10T19:20:51.930Z,4.63
2017-11-10T19:23:20.409Z,6.53
2017-11-10T19:25:52.681Z,4.60
2017-11-10T19:28:21.671Z,5.57
2017-11-10T19:30:49.844Z,5.30
2017-11-10T19:33:18.415Z,5.47
2017-11-10T19:35:47.209Z,4.60
2017-11-10T19:38:15.699Z,4.67
2017-11-10T19:40:44.163Z,4.43
2017-11-10T19:43:12.611Z,4.70
2017-11-10T19:45:41.110Z,4.30
2017-11-10T19:48:09.598Z,4.73
2017-11-10T19:50:38.098Z,3.63
2017-11-10T19:53:06.623Z,4.60
2017-11-10T19:55:35.867Z,3.93
2017-11-10T19:58:04.659Z,4.53
2017-11-10T20:00:33.207Z,4.50
2017-11-10T20:03:02.038Z,4.40
2017-11-10T20:05:30.719Z,3.20
2017-11-10T20:07:59.085Z,4.83
2017-11-10T20:10:27.355Z,4.60
2017-11-10T20:12:55.807Z,4.60
2017-11-10T20:15:25.041Z,4.30
2017-11-10T20:17:53.486Z,4.30
2017-11-10T20:20:21.959Z,4.00
2017-11-10T20:22:51.160Z,4.03
2017-11-10T20:25:19.589Z,4.80
2017-11-10T20:27:48.067Z,4.80
2017-11-10T20:30:16.611Z,4.60
2017-11-10T20:32:45.075Z,4.10
2017-11-10T20:35:14.310Z,4.50
2017-11-10T20:37:42.770Z,4.50
2017-11-10T20:40:11.253Z,4.00
2017-11-10T20:42:39.701Z,4.23
2017-11-10T20:45:07.923Z,4.77
2017-11-10T20:47:36.401Z,4.20
2017-11-10T20:50:04.506Z,4.40
2017-11-10T20:52:32.934Z,3.70
2017-11-10T20:55:02.155Z,4.30
2017-11-10T20:57:30.593Z,4.20
2017-11-10T20:59:59.773Z,4.20
2017-11-10T21:02:28.197Z,3.93
2017-11-10T21:04:56.648Z,4.90
2017-11-10T21:07:25.835Z,3.87
2017-11-10T21:09:54.240Z,3.97
2017-11-10T21:12:22.665Z,4.50
2017-11-10T21:14:51.084Z,5.00
2017-11-10T21:17:19.921Z,5.00
2017-11-10T21:19:48.345Z,4.93
2017-11-10T21:22:17.192Z,4.03
2017-11-10T21:24:46.384Z,4.10
2017-11-10T21:27:14.816Z,4.50
2017-11-10T21:29:43.997Z,5.03
2017-11-10T21:32:13.173Z,4.40
2017-11-10T21:34:43.124Z,4.60
2017-11-10T21:37:12.573Z,3.70
2017-11-10T21:39:41.000Z,5.40
2017-11-10T21:42:10.187Z,4.27
2017-11-10T21:44:38.831Z,3.40
2017-11-10T21:47:07.255Z,4.00
2017-11-10T21:49:36.461Z,4.93
2017-11-10T21:52:05.638Z,3.90
2017-11-10T21:54:33.967Z,3.90
2017-11-10T21:57:02.203Z,3.60
2017-11-10T21:59:31.399Z,4.00
2017-11-10T22:02:00.577Z,4.07
2017-11-10T22:04:29.011Z,4.37
2017-11-10T22:06:57.439Z,3.90
2017-11-10T22:09:25.873Z,4.17
2017-11-10T22:11:54.555Z,3.67
2017-11-10T22:14:22.978Z,3.30
2017-11-10T22:16:51.391Z,4.03
2017-11-10T22:19:19.899Z,3.57
2017-11-10T22:21:48.228Z,4.20
2017-11-10T22:24:17.206Z,3.03
2017-11-10T22:26:45.631Z,4.10
2017-11-10T22:29:14.804Z,3.90
2017-11-10T22:31:43.982Z,3.90
2017-11-10T22:34:12.411Z,3.20
2017-11-10T22:36:40.816Z,3.77
2017-11-10T22:39:09.214Z,4.17
2017-11-10T22:41:37.647Z,4.17
2017-11-10T22:44:06.065Z,3.90
2017-11-10T22:46:34.484Z,3.80
2017-11-10T22:49:02.917Z,3.80
2017-11-10T22:51:31.341Z,4.70
2017-11-10T22:53:59.763Z,4.57
2017-11-10T22:56:28.192Z,4.90
2017-11-10T22:58:57.360Z,4.20
2017-11-10T23:01:25.767Z,5.33
2017-11-10T23:03:54.966Z,5.27
2017-11-10T23:06:23.378Z,5.30
2017-11-10T23:08:51.792Z,6.20
2017-11-10T23:11:20.031Z,5.97
2017-11-10T23:13:48.436Z,5.80
2017-11-10T23:16:16.859Z,6.70
2017-11-10T23:18:45.315Z,6.53
2017-11-10T23:21:14.253Z,6.47
2017-11-10T23:23:42.670Z,6.30
2017-11-10T23:26:11.093Z,6.47
2017-11-10T23:28:39.506Z,6.90
2017-11-10T23:31:07.904Z,6.60
2017-11-10T23:33:36.325Z,7.70
2017-11-10T23:36:04.739Z,7.80
2017-11-10T23:38:33.158Z,7.53
2017-11-10T23:41:02.348Z,7.20
2017-11-10T23:43:30.763Z,8.93
2017-11-10T23:45:59.172Z,8.80
2017-11-10T23:48:27.595Z,9.23
2017-11-10T23:50:56.782Z,8.00
2017-11-10T23:53:25.963Z,9.67
2017-11-10T23:55:54.419Z,8.87
2017-11-10T23:58:22.833Z,8.13
